sensor_id;sensor_type;location;lat;lon;timestamp;pressure;altitude;pressure_sealevel;temperature;humidity
32083;BME280;18597;48.328;7.932;2022-11-20T00:01:26;99174.41;;;6.76;100.00
32083;BME280;18597;48.328;7.932;2022-11-20T00:03:55;99186.47;;;6.80;100.00
32083;BME280;18597;48.328;7.932;2022-11-20T00:06:22;99178.63;;;6.78;100.00
32083;BME280;18597;48.328;7.932;2022-11-20T00:08:49;99189.41;;;6.88;100.00
32083;BME280;18597;48.328;7.932;2022-11-20T00:11:18;99188.78;;;6.73;100.00
32083;BME280;18597;48.328;7.932;2022-11-20T00:13:47;99186.13;;;6.84;100.00
32083;BME280;18597;48.328;7.932;2022-11-20T00:16:16;99189.97;;;6.69;100.00
32083;BME280;18597;48.328;7.932;2022-11-20T00:18:43;99188.16;;;6.70;100.00
32083;BME280;18597;48.328;7.932;2022-11-20T00:21:15;99193.84;;;6.65;100.00
32083;BME280;18597;48.328;7.932;2022-11-20T00:23:42;99197.44;;;6.64;100.00
32083;BME280;18597;48.328;7.932;2022-11-20T00:26:12;99197.78;;;6.59;100.00
32083;BME280;18597;48.328;7.932;2022-11-20T00:28:39;99199.09;;;6.54;100.00
32083;BME280;18597;48.328;7.932;2022-11-20T00:31:15;99196.44;;;6.54;100.00
32083;BME280;18597;48.328;7.932;2022-11-20T00:33:42;99202.00;;;6.51;100.00
32083;BME280;18597;48.328;7.932;2022-11-20T00:36:12;99202.47;;;6.56;100.00
32083;BME280;18597;48.328;7.932;2022-11-20T00:38:38;99196.56;;;6.52;100.00
32083;BME280;18597;48.328;7.932;2022-11-20T00:41:07;99205.13;;;6.56;100.00
32083;BME280;18597;48.328;7.932;2022-11-20T00:43:34;99211.66;;;6.52;100.00
32083;BME280;18597;48.328;7.932;2022-11-20T00:46:05;99212.88;;;6.59;100.00
32083;BME280;18597;48.328;7.932;2022-11-20T00:48:32;99209.47;;;6.57;100.00
32083;BME280;18597;48.328;7.932;2022-11-20T00:50:58;99217.47;;;6.68;100.00
32083;BME280;18597;48.328;7.932;2022-11-20T00:53:24;99209.59;;;6.55;100.00
32083;BME280;18597;48.328;7.932;2022-11-20T00:55:55;99207.19;;;6.52;100.00
32083;BME280;18597;48.328;7.932;2022-11-20T00:58:22;99209.00;;;6.52;100.00
32083;BME280;18597;48.328;7.932;2022-11-20T01:00:48;99205.97;;;6.56;100.00
32083;BME280;18597;48.328;7.932;2022-11-20T01:03:17;99206.97;;;6.66;100.00
32083;BME280;18597;48.328;7.932;2022-11-20T01:05:43;99199.09;;;6.54;100.00
32083;BME280;18597;48.328;7.932;2022-11-20T01:08:09;99203.91;;;6.49;100.00
32083;BME280;18597;48.328;7.932;2022-11-20T01:10:36;99205.81;;;6.47;100.00
32083;BME280;18597;48.328;7.932;2022-11-20T01:13:02;99212.09;;;6.46;100.00
32083;BME280;18597;48.328;7.932;2022-11-20T01:15:48;99212.94;;;6.46;100.00
32083;BME280;18597;48.328;7.932;2022-11-20T01:18:13;99211.47;;;6.42;100.00
32083;BME280;18597;48.328;7.932;2022-11-20T01:20:39;99215.09;;;6.41;100.00
32083;BME280;18597;48.328;7.932;2022-11-20T01:23:05;99219.78;;;6.37;100.00
32083;BME280;18597;48.328;7.932;2022-11-20T01:25:31;99220.06;;;6.46;100.00
32083;BME280;18597;48.328;7.932;2022-11-20T01:27:56;99223.31;;;6.49;100.00
32083;BME280;18597;48.328;7.932;2022-11-20T01:30:22;99224.66;;;6.44;100.00
32083;BME280;18597;48.328;7.932;2022-11-20T01:32:48;99216.69;;;6.44;100.00
32083;BME280;18597;48.328;7.932;2022-11-20T01:35:14;99215.25;;;6.51;100.00
32083;BME280;18597;48.328;7.932;2022-11-20T01:37:40;99218.50;;;6.43;100.00
32083;BME280;18597;48.328;7.932;2022-11-20T01:40:06;99220.41;;;6.41;100.00
32083;BME280;18597;48.328;7.932;2022-11-20T01:42:32;99206.53;;;6.49;100.00
32083;BME280;18597;48.328;7.932;2022-11-20T01:48:41;99212.50;;;6.52;100.00
32083;BME280;18597;48.328;7.932;2022-11-20T01:54:07;99214.59;;;6.36;100.00
32083;BME280;18597;48.328;7.932;2022-11-20T01:56:39;99211.31;;;6.32;100.00
32083;BME280;18597;48.328;7.932;2022-11-20T01:59:08;99204.78;;;6.25;100.00
32083;BME280;18597;48.328;7.932;2022-11-20T02:01:36;99208.50;;;6.23;100.00
32083;BME280;18597;48.328;7.932;2022-11-20T02:04:02;99207.66;;;6.22;100.00
32083;BME280;18597;48.328;7.932;2022-11-20T02:06:35;99212.00;;;6.23;100.00
32083;BME280;18597;48.328;7.932;2022-11-20T02:09:04;99205.63;;;6.26;100.00
32083;BME280;18597;48.328;7.932;2022-11-20T02:11:31;99204.06;;;6.23;100.00
32083;BME280;18597;48.328;7.932;2022-11-20T02:13:57;99209.03;;;6.28;100.00
32083;BME280;18597;48.328;7.932;2022-11-20T02:16:30;99211.94;;;6.36;100.00
32083;BME280;18597;48.328;7.932;2022-11-20T02:19:00;99211.09;;;6.35;100.00
32083;BME280;18597;48.328;7.932;2022-11-20T02:22:07;99200.94;;;6.29;100.00
32083;BME280;18597;48.328;7.932;2022-11-20T02:24:36;99204.22;;;6.09;100.00
32083;BME280;18597;48.328;7.932;2022-11-20T02:27:13;99190.56;;;6.02;100.00
32083;BME280;18597;48.328;7.932;2022-11-20T02:29:53;99200.34;;;5.89;100.00
32083;BME280;18597;48.328;7.932;2022-11-20T02:37:57;99206.44;;;5.42;100.00
32083;BME280;18597;48.328;7.932;2022-11-20T02:40:24;99205.69;;;5.40;100.00
32083;BME280;18597;48.328;7.932;2022-11-20T02:42:54;99207.94;;;5.33;100.00
32083;BME280;18597;48.328;7.932;2022-11-20T02:45:20;99205.25;;;5.46;100.00
32083;BME280;18597;48.328;7.932;2022-11-20T02:47:46;99206.22;;;5.45;100.00
32083;BME280;18597;48.328;7.932;2022-11-20T02:50:12;99194.38;;;5.38;100.00
32083;BME280;18597;48.328;7.932;2022-11-20T02:52:38;99194.91;;;5.30;100.00
32083;BME280;18597;48.328;7.932;2022-11-20T02:55:04;99198.00;;;5.24;100.00
32083;BME280;18597;48.328;7.932;2022-11-20T02:57:30;99199.13;;;5.33;100.00
32083;BME280;18597;48.328;7.932;2022-11-20T02:59:56;99189.13;;;5.49;100.00
32083;BME280;18597;48.328;7.932;2022-11-20T03:02:22;99187.28;;;5.75;100.00
32083;BME280;18597;48.328;7.932;2022-11-20T03:04:48;99201.94;;;5.68;100.00
32083;BME280;18597;48.328;7.932;2022-11-20T03:07:13;99198.75;;;5.63;100.00
32083;BME280;18597;48.328;7.932;2022-11-20T03:09:39;99199.41;;;5.53;100.00
32083;BME280;18597;48.328;7.932;2022-11-20T03:12:05;99200.47;;;5.51;100.00
32083;BME280;18597;48.328;7.932;2022-11-20T03:14:31;99200.38;;;5.52;100.00
32083;BME280;18597;48.328;7.932;2022-11-20T03:16:57;99197.56;;;5.67;100.00
32083;BME280;18597;48.328;7.932;2022-11-20T03:19:23;99195.03;;;5.65;100.00
32083;BME280;18597;48.328;7.932;2022-11-20T03:21:49;99187.44;;;5.61;100.00
32083;BME280;18597;48.328;7.932;2022-11-20T03:24:15;99193.56;;;5.61;100.00
32083;BME280;18597;48.328;7.932;2022-11-20T03:26:41;99189.84;;;5.64;100.00
32083;BME280;18597;48.328;7.932;2022-11-20T03:29:07;99197.34;;;5.70;100.00
32083;BME280;18597;48.328;7.932;2022-11-20T03:31:38;99200.84;;;5.70;100.00
32083;BME280;18597;48.328;7.932;2022-11-20T03:34:07;99203.25;;;5.73;100.00
32083;BME280;18597;48.328;7.932;2022-11-20T03:36:34;99201.81;;;5.69;100.00
32083;BME280;18597;48.328;7.932;2022-11-20T03:39:00;99201.81;;;5.69;100.00
32083;BME280;18597;48.328;7.932;2022-11-20T03:41:29;99196.56;;;5.80;100.00
32083;BME280;18597;48.328;7.932;2022-11-20T03:44:00;99201.13;;;5.78;100.00
32083;BME280;18597;48.328;7.932;2022-11-20T03:46:27;99191.50;;;5.77;100.00
32083;BME280;18597;48.328;7.932;2022-11-20T03:48:54;99199.44;;;5.77;100.00
32083;BME280;18597;48.328;7.932;2022-11-20T03:51:23;99202.94;;;5.78;100.00
32083;BME280;18597;48.328;7.932;2022-11-20T03:53:52;99201.38;;;5.75;100.00
32083;BME280;18597;48.328;7.932;2022-11-20T03:56:23;99202.09;;;5.77;100.00
32083;BME280;18597;48.328;7.932;2022-11-20T03:58:50;99199.50;;;5.89;100.00
32083;BME280;18597;48.328;7.932;2022-11-20T04:01:20;99208.41;;;5.88;100.00
32083;BME280;18597;48.328;7.932;2022-11-20T04:03:46;99204.81;;;5.89;100.00
32083;BME280;18597;48.328;7.932;2022-11-20T04:06:20;99206.19;;;5.81;100.00
32083;BME280;18597;48.328;7.932;2022-11-20T04:08:46;99198.88;;;5.85;100.00
32083;BME280;18597;48.328;7.932;2022-11-20T04:11:21;99212.03;;;5.87;100.00
32083;BME280;18597;48.328;7.932;2022-11-20T04:13:57;99200.34;;;5.89;100.00
32083;BME280;18597;48.328;7.932;2022-11-20T04:16:26;99198.56;;;5.90;100.00
32083;BME280;18597;48.328;7.932;2022-11-20T04:18:54;99191.38;;;5.92;100.00
32083;BME280;18597;48.328;7.932;2022-11-20T04:21:21;99195.38;;;5.97;100.00
32083;BME280;18597;48.328;7.932;2022-11-20T04:23:46;99207.59;;;6.11;100.00
32083;BME280;18597;48.328;7.932;2022-11-20T04:26:12;99199.72;;;6.22;100.00
32083;BME280;18597;48.328;7.932;2022-11-20T04:28:39;99204.38;;;6.19;100.00
32083;BME280;18597;48.328;7.932;2022-11-20T04:31:09;99206.28;;;6.05;100.00
32083;BME280;18597;48.328;7.932;2022-11-20T04:33:37;99206.84;;;5.98;100.00
32083;BME280;18597;48.328;7.932;2022-11-20T04:36:07;99215.16;;;6.04;100.00
32083;BME280;18597;48.328;7.932;2022-11-20T04:38:35;99217.31;;;5.99;100.00
32083;BME280;18597;48.328;7.932;2022-11-20T04:41:04;99214.72;;;6.10;100.00
32083;BME280;18597;48.328;7.932;2022-11-20T04:43:31;99207.31;;;6.03;100.00
32083;BME280;18597;48.328;7.932;2022-11-20T04:45:58;99206.56;;;6.14;100.00
32083;BME280;18597;48.328;7.932;2022-11-20T04:48:26;99202.03;;;6.03;100.00
32083;BME280;18597;48.328;7.932;2022-11-20T04:50:53;99211.28;;;5.97;100.00
32083;BME280;18597;48.328;7.932;2022-11-20T04:53:20;99201.91;;;6.04;100.00
32083;BME280;18597;48.328;7.932;2022-11-20T04:55:46;99201.81;;;6.06;100.00
32083;BME280;18597;48.328;7.932;2022-11-20T04:58:12;99195.75;;;6.04;100.00
32083;BME280;18597;48.328;7.932;2022-11-20T05:00:39;99197.00;;;6.11;100.00
32083;BME280;18597;48.328;7.932;2022-11-20T05:03:05;99193.84;;;6.06;100.00
32083;BME280;18597;48.328;7.932;2022-11-20T05:05:32;99201.53;;;6.22;100.00
32083;BME280;18597;48.328;7.932;2022-11-20T05:07:58;99201.25;;;6.14;100.00
32083;BME280;18597;48.328;7.932;2022-11-20T05:10:25;99201.72;;;6.19;100.00
32083;BME280;18597;48.328;7.932;2022-11-20T05:12:52;99198.34;;;6.17;100.00
32083;BME280;18597;48.328;7.932;2022-11-20T05:15:18;99198.47;;;6.15;100.00
32083;BME280;18597;48.328;7.932;2022-11-20T05:17:52;99195.66;;;6.29;100.00
32083;BME280;18597;48.328;7.932;2022-11-20T05:20:18;99196.63;;;6.39;100.00
32083;BME280;18597;48.328;7.932;2022-11-20T05:22:44;99192.47;;;6.24;100.00
32083;BME280;18597;48.328;7.932;2022-11-20T05:25:11;99192.72;;;6.21;100.00
32083;BME280;18597;48.328;7.932;2022-11-20T05:27:37;99196.34;;;6.20;100.00
32083;BME280;18597;48.328;7.932;2022-11-20T05:30:04;99194.69;;;6.30;100.00
32083;BME280;18597;48.328;7.932;2022-11-20T05:32:30;99191.78;;;6.33;100.00
32083;BME280;18597;48.328;7.932;2022-11-20T05:34:56;99190.63;;;6.49;100.00
32083;BME280;18597;48.328;7.932;2022-11-20T05:37:22;99193.47;;;6.34;100.00
32083;BME280;18597;48.328;7.932;2022-11-20T05:39:48;99184.34;;;6.38;100.00
32083;BME280;18597;48.328;7.932;2022-11-20T05:42:13;99190.38;;;6.40;100.00
32083;BME280;18597;48.328;7.932;2022-11-20T05:45:02;99184.66;;;6.34;100.00
32083;BME280;18597;48.328;7.932;2022-11-20T05:47:33;99194.34;;;6.35;100.00
32083;BME280;18597;48.328;7.932;2022-11-20T05:49:59;99188.06;;;6.36;100.00
32083;BME280;18597;48.328;7.932;2022-11-20T05:52:29;99187.22;;;6.35;100.00
32083;BME280;18597;48.328;7.932;2022-11-20T05:54:55;99187.72;;;6.40;100.00
32083;BME280;18597;48.328;7.932;2022-11-20T05:57:21;99191.78;;;6.33;100.00
32083;BME280;18597;48.328;7.932;2022-11-20T05:59:47;99199.03;;;6.31;100.00
32083;BME280;18597;48.328;7.932;2022-11-20T06:02:12;99211.72;;;6.39;100.00
32083;BME280;18597;48.328;7.932;2022-11-20T06:04:38;99208.47;;;6.35;100.00
32083;BME280;18597;48.328;7.932;2022-11-20T06:07:05;99206.25;;;6.29;100.00
32083;BME280;18597;48.328;7.932;2022-11-20T06:09:32;99204.31;;;6.31;100.00
32083;BME280;18597;48.328;7.932;2022-11-20T06:11:58;99199.81;;;6.45;100.00
32083;BME280;18597;48.328;7.932;2022-11-20T06:14:23;99202.41;;;6.33;100.00
32083;BME280;18597;48.328;7.932;2022-11-20T06:16:49;99199.75;;;6.33;100.00
32083;BME280;18597;48.328;7.932;2022-11-20T06:19:15;99215.56;;;6.35;100.00
32083;BME280;18597;48.328;7.932;2022-11-20T06:21:41;99216.63;;;6.32;100.00
32083;BME280;18597;48.328;7.932;2022-11-20T06:24:09;99214.81;;;6.33;100.00
32083;BME280;18597;48.328;7.932;2022-11-20T06:26:35;99200.06;;;6.53;100.00
32083;BME280;18597;48.328;7.932;2022-11-20T06:29:01;99199.44;;;6.49;100.00
32083;BME280;18597;48.328;7.932;2022-11-20T06:31:27;99203.03;;;6.37;100.00
32083;BME280;18597;48.328;7.932;2022-11-20T06:33:54;99198.44;;;6.39;100.00
32083;BME280;18597;48.328;7.932;2022-11-20T06:36:22;99198.09;;;6.44;100.00
32083;BME280;18597;48.328;7.932;2022-11-20T06:38:48;99203.41;;;6.44;100.00
32083;BME280;18597;48.328;7.932;2022-11-20T06:41:18;99204.00;;;6.36;100.00
32083;BME280;18597;48.328;7.932;2022-11-20T06:43:44;99201.56;;;6.33;100.00
32083;BME280;18597;48.328;7.932;2022-11-20T06:46:12;99207.13;;;6.41;100.00
32083;BME280;18597;48.328;7.932;2022-11-20T06:48:38;99203.91;;;6.49;100.00
32083;BME280;18597;48.328;7.932;2022-11-20T06:51:06;99211.47;;;6.42;100.00
32083;BME280;18597;48.328;7.932;2022-11-20T06:53:32;99203.69;;;6.52;100.00
32083;BME280;18597;48.328;7.932;2022-11-20T06:55:59;99207.31;;;6.51;100.00
32083;BME280;18597;48.328;7.932;2022-11-20T06:58:28;99206.22;;;6.53;100.00
32083;BME280;18597;48.328;7.932;2022-11-20T07:00:59;99214.69;;;6.58;100.00
32083;BME280;18597;48.328;7.932;2022-11-20T07:03:25;99210.94;;;6.61;100.00
32083;BME280;18597;48.328;7.932;2022-11-20T07:05:50;99212.88;;;6.59;100.00
32083;BME280;18597;48.328;7.932;2022-11-20T07:08:16;99214.78;;;6.57;100.00
32083;BME280;18597;48.328;7.932;2022-11-20T07:10:42;99220.38;;;6.65;100.00
32083;BME280;18597;48.328;7.932;2022-11-20T07:13:08;99220.59;;;6.62;100.00
32083;BME280;18597;48.328;7.932;2022-11-20T07:15:34;99224.72;;;6.66;100.00
32083;BME280;18597;48.328;7.932;2022-11-20T07:18:00;99218.31;;;6.68;100.00
32083;BME280;18597;48.328;7.932;2022-11-20T07:20:27;99223.28;;;6.73;100.00
32083;BME280;18597;48.328;7.932;2022-11-20T07:22:54;99220.41;;;6.76;100.00
32083;BME280;18597;48.328;7.932;2022-11-20T07:25:23;99225.69;;;6.76;100.00
32083;BME280;18597;48.328;7.932;2022-11-20T07:27:49;99233.31;;;6.81;100.00
32083;BME280;18597;48.328;7.932;2022-11-20T07:30:16;99234.38;;;6.78;100.00
32083;BME280;18597;48.328;7.932;2022-11-20T07:32:42;99236.31;;;6.76;100.00
32083;BME280;18597;48.328;7.932;2022-11-20T07:35:11;99234.16;;;6.81;100.00
32083;BME280;18597;48.328;7.932;2022-11-20T07:37:37;99242.59;;;6.75;100.00
32083;BME280;18597;48.328;7.932;2022-11-20T07:40:03;99237.28;;;6.75;100.00
32083;BME280;18597;48.328;7.932;2022-11-20T07:42:29;99236.06;;;6.79;100.00
32083;BME280;18597;48.328;7.932;2022-11-20T07:44:55;99235.97;;;6.81;100.00
32083;BME280;18597;48.328;7.932;2022-11-20T07:47:21;99232.25;;;6.94;100.00
32083;BME280;18597;48.328;7.932;2022-11-20T07:49:46;99236.84;;;6.92;100.00
32083;BME280;18597;48.328;7.932;2022-11-20T07:52:12;99228.16;;;6.90;100.00
32083;BME280;18597;48.328;7.932;2022-11-20T07:54:38;99243.47;;;6.87;100.00
32083;BME280;18597;48.328;7.932;2022-11-20T07:57:04;99242.03;;;6.94;100.00
32083;BME280;18597;48.328;7.932;2022-11-20T07:59:29;99245.91;;;6.90;100.00
32083;BME280;18597;48.328;7.932;2022-11-20T08:01:55;99242.28;;;7.02;100.00
32083;BME280;18597;48.328;7.932;2022-11-20T08:04:21;99251.94;;;6.92;100.00
32083;BME280;18597;48.328;7.932;2022-11-20T08:06:47;99243.63;;;6.97;100.00
32083;BME280;18597;48.328;7.932;2022-11-20T08:09:13;99243.03;;;7.04;100.00
32083;BME280;18597;48.328;7.932;2022-11-20T08:11:38;99245.78;;;7.03;100.00
32083;BME280;18597;48.328;7.932;2022-11-20T08:14:24;99249.53;;;7.00;100.00
32083;BME280;18597;48.328;7.932;2022-11-20T08:16:50;99248.69;;;7.00;100.00
32083;BME280;18597;48.328;7.932;2022-11-20T08:19:18;99261.13;;;7.10;100.00
32083;BME280;18597;48.328;7.932;2022-11-20T08:21:44;99264.16;;;7.17;100.00
32083;BME280;18597;48.328;7.932;2022-11-20T08:24:11;99272.13;;;7.17;100.00
32083;BME280;18597;48.328;7.932;2022-11-20T08:26:38;99267.78;;;7.16;100.00
32083;BME280;18597;48.328;7.932;2022-11-20T08:29:05;99271.06;;;7.19;100.00
32083;BME280;18597;48.328;7.932;2022-11-20T08:31:31;99276.84;;;7.13;100.00
32083;BME280;18597;48.328;7.932;2022-11-20T08:33:57;99273.09;;;7.16;100.00
32083;BME280;18597;48.328;7.932;2022-11-20T08:36:24;99281.09;;;7.38;100.00
32083;BME280;18597;48.328;7.932;2022-11-20T08:38:54;99281.09;;;7.38;100.00
32083;BME280;18597;48.328;7.932;2022-11-20T08:41:20;99284.00;;;7.35;100.00
32083;BME280;18597;48.328;7.932;2022-11-20T08:43:52;99296.44;;;7.46;100.00
32083;BME280;18597;48.328;7.932;2022-11-20T08:46:19;99288.34;;;7.36;100.00
32083;BME280;18597;48.328;7.932;2022-11-20T08:48:45;99298.94;;;7.25;100.00
32083;BME280;18597;48.328;7.932;2022-11-20T08:51:14;99298.00;;;7.26;100.00
32083;BME280;18597;48.328;7.932;2022-11-20T08:53:41;99302.81;;;7.21;100.00
32083;BME280;18597;48.328;7.932;2022-11-20T08:56:07;99309.44;;;7.15;100.00
32083;BME280;18597;48.328;7.932;2022-11-20T08:58:35;99316.81;;;7.12;100.00
32083;BME280;18597;48.328;7.932;2022-11-20T09:01:01;99305.59;;;7.19;100.00
32083;BME280;18597;48.328;7.932;2022-11-20T09:03:27;99310.16;;;7.17;100.00
32083;BME280;18597;48.328;7.932;2022-11-20T09:06:04;99314.53;;;7.30;100.00
32083;BME280;18597;48.328;7.932;2022-11-20T09:08:30;99313.47;;;7.32;100.00
32083;BME280;18597;48.328;7.932;2022-11-20T09:10:58;99310.72;;;7.34;100.00
32083;BME280;18597;48.328;7.932;2022-11-20T09:13:26;99314.66;;;7.28;100.00
32083;BME280;18597;48.328;7.932;2022-11-20T09:15:55;99317.06;;;7.20;100.00
32083;BME280;18597;48.328;7.932;2022-11-20T09:18:22;99313.56;;;7.19;100.00
32083;BME280;18597;48.328;7.932;2022-11-20T09:20:48;99328.41;;;7.11;100.00
32083;BME280;18597;48.328;7.932;2022-11-20T09:23:15;99330.97;;;7.23;100.00
32083;BME280;18597;48.328;7.932;2022-11-20T09:25:41;99333.47;;;7.14;100.00
32083;BME280;18597;48.328;7.932;2022-11-20T09:28:07;99332.38;;;7.16;100.00
32083;BME280;18597;48.328;7.932;2022-11-20T09:30:33;99325.88;;;7.20;100.00
32083;BME280;18597;48.328;7.932;2022-11-20T09:32:59;99329.38;;;7.21;100.00
32083;BME280;18597;48.328;7.932;2022-11-20T09:35:25;99330.97;;;7.23;100.00
32083;BME280;18597;48.328;7.932;2022-11-20T09:37:51;99328.94;;;7.38;100.00
32083;BME280;18597;48.328;7.932;2022-11-20T09:40:28;99334.53;;;7.58;100.00
32083;BME280;18597;48.328;7.932;2022-11-20T09:43:25;99326.31;;;7.72;100.00
32083;BME280;18597;48.328;7.932;2022-11-20T09:46:19;99334.31;;;7.94;100.00
32083;BME280;18597;48.328;7.932;2022-11-20T09:51:50;99335.47;;;8.24;100.00
32083;BME280;18597;48.328;7.932;2022-11-20T09:54:21;99336.19;;;8.37;100.00
32083;BME280;18597;48.328;7.932;2022-11-20T09:56:56;99340.53;;;8.49;100.00
32083;BME280;18597;48.328;7.932;2022-11-20T09:59:50;99333.25;;;8.51;100.00
32083;BME280;18597;48.328;7.932;2022-11-20T10:05:10;99326.06;;;8.95;100.00
32083;BME280;18597;48.328;7.932;2022-11-20T10:11:05;99332.78;;;9.52;100.00
32083;BME280;18597;48.328;7.932;2022-11-20T10:25:22;99324.50;;;10.86;100.00
32083;BME280;18597;48.328;7.932;2022-11-20T10:30:37;99321.72;;;11.53;100.00
32083;BME280;18597;48.328;7.932;2022-11-20T10:33:17;99320.00;;;11.81;99.19
32083;BME280;18597;48.328;7.932;2022-11-20T10:35:52;99323.94;;;12.14;94.56
32083;BME280;18597;48.328;7.932;2022-11-20T10:38:34;99322.50;;;12.47;92.17
32083;BME280;18597;48.328;7.932;2022-11-20T10:41:02;99322.78;;;12.44;84.33
32083;BME280;18597;48.328;7.932;2022-11-20T10:46:43;99307.50;;;12.00;85.45
32083;BME280;18597;48.328;7.932;2022-11-20T10:49:15;99310.63;;;12.22;87.25
32083;BME280;18597;48.328;7.932;2022-11-20T10:52:56;99293.88;;;12.48;83.55
32083;BME280;18597;48.328;7.932;2022-11-20T10:58:42;99279.00;;;12.54;80.31
32083;BME280;18597;48.328;7.932;2022-11-20T11:01:20;99267.75;;;12.86;80.17
32083;BME280;18597;48.328;7.932;2022-11-20T11:03:50;99271.84;;;13.16;81.90
32083;BME280;18597;48.328;7.932;2022-11-20T11:06:33;99268.53;;;13.40;77.66
32083;BME280;18597;48.328;7.932;2022-11-20T11:09:11;99256.72;;;13.58;75.35
32083;BME280;18597;48.328;7.932;2022-11-20T11:11:39;99260.81;;;13.45;73.82
32083;BME280;18597;48.328;7.932;2022-11-20T11:14:09;99255.22;;;13.12;76.59
32083;BME280;18597;48.328;7.932;2022-11-20T11:16:35;99244.41;;;12.78;76.43
32083;BME280;18597;48.328;7.932;2022-11-20T11:19:16;99237.88;;;12.45;81.42
32083;BME280;18597;48.328;7.932;2022-11-20T11:21:57;99245.84;;;12.19;81.62
32083;BME280;18597;48.328;7.932;2022-11-20T11:24:27;99240.47;;;12.19;85.52
32083;BME280;18597;48.328;7.932;2022-11-20T11:27:02;99244.16;;;12.18;83.27
32083;BME280;18597;48.328;7.932;2022-11-20T11:29:31;99245.59;;;12.12;86.34
32083;BME280;18597;48.328;7.932;2022-11-20T11:32:17;99228.59;;;12.21;85.91
32083;BME280;18597;48.328;7.932;2022-11-20T11:34:44;99216.53;;;12.53;85.93
32083;BME280;18597;48.328;7.932;2022-11-20T11:37:21;99216.44;;;12.45;84.87
32083;BME280;18597;48.328;7.932;2022-11-20T11:39:47;99208.66;;;12.52;86.73
32083;BME280;18597;48.328;7.932;2022-11-20T11:42:18;99205.03;;;12.61;87.80
32083;BME280;18597;48.328;7.932;2022-11-20T11:44:47;99207.72;;;12.61;87.20
32083;BME280;18597;48.328;7.932;2022-11-20T11:47:46;99197.06;;;12.69;86.45
32083;BME280;18597;48.328;7.932;2022-11-20T11:50:23;99193.25;;;12.71;80.13
32083;BME280;18597;48.328;7.932;2022-11-20T11:53:12;99185.47;;;12.42;83.61
32083;BME280;18597;48.328;7.932;2022-11-20T11:56:04;99176.97;;;12.11;86.62
32083;BME280;18597;48.328;7.932;2022-11-20T11:58:48;99177.81;;;11.29;90.81
32083;BME280;18597;48.328;7.932;2022-11-20T12:01:53;99183.34;;;11.08;94.90
32083;BME280;18597;48.328;7.932;2022-11-20T12:04:44;99172.56;;;11.00;95.36
32083;BME280;18597;48.328;7.932;2022-11-20T12:07:20;99167.31;;;11.08;96.66
32083;BME280;18597;48.328;7.932;2022-11-20T12:09:53;99171.78;;;11.27;96.18
32083;BME280;18597;48.328;7.932;2022-11-20T12:12:27;99172.06;;;11.52;93.38
32083;BME280;18597;48.328;7.932;2022-11-20T12:14:56;99169.50;;;11.60;91.50
32083;BME280;18597;48.328;7.932;2022-11-20T12:17:23;99175.16;;;11.57;92.64
32083;BME280;18597;48.328;7.932;2022-11-20T12:19:49;99179.09;;;11.53;93.90
32083;BME280;18597;48.328;7.932;2022-11-20T12:25:28;99176.47;;;11.80;88.16
32083;BME280;18597;48.328;7.932;2022-11-20T12:28:41;99177.25;;;11.90;85.81
32083;BME280;18597;48.328;7.932;2022-11-20T12:34:37;99174.56;;;11.90;81.98
32083;BME280;18597;48.328;7.932;2022-11-20T12:43:19;99158.59;;;11.71;83.13
32083;BME280;18597;48.328;7.932;2022-11-20T12:46:18;99155.25;;;11.42;88.54
32083;BME280;18597;48.328;7.932;2022-11-20T12:49:34;99159.25;;;11.18;92.58
32083;BME280;18597;48.328;7.932;2022-11-20T12:52:29;99159.50;;;10.97;90.32
32083;BME280;18597;48.328;7.932;2022-11-20T13:01:07;99144.91;;;10.82;100.00
32083;BME280;18597;48.328;7.932;2022-11-20T13:03:59;99149.56;;;10.70;96.19
32083;BME280;18597;48.328;7.932;2022-11-20T13:06:32;99153.09;;;10.61;98.13
32083;BME280;18597;48.328;7.932;2022-11-20T13:08:59;99145.63;;;10.65;100.00
32083;BME280;18597;48.328;7.932;2022-11-20T13:12:40;99140.84;;;10.68;99.77
32083;BME280;18597;48.328;7.932;2022-11-20T13:17:54;99129.59;;;10.74;100.00
32083;BME280;18597;48.328;7.932;2022-11-20T13:20:22;99117.50;;;10.70;100.00
32083;BME280;18597;48.328;7.932;2022-11-20T13:22:52;99114.84;;;10.61;100.00
32083;BME280;18597;48.328;7.932;2022-11-20T13:25:34;99115.53;;;10.72;100.00
32083;BME280;18597;48.328;7.932;2022-11-20T13:28:34;99106.78;;;10.90;100.00
32083;BME280;18597;48.328;7.932;2022-11-20T13:30:53;99109.44;;;11.17;100.00
32083;BME280;18597;48.328;7.932;2022-11-20T13:33:40;99107.38;;;11.38;97.44
32083;BME280;18597;48.328;7.932;2022-11-20T13:36:31;99096.09;;;11.45;94.48
32083;BME280;18597;48.328;7.932;2022-11-20T13:38:58;99109.22;;;11.38;94.93
32083;BME280;18597;48.328;7.932;2022-11-20T13:41:33;99096.53;;;11.40;93.33
32083;BME280;18597;48.328;7.932;2022-11-20T13:44:29;99101.44;;;11.45;95.37
32083;BME280;18597;48.328;7.932;2022-11-20T13:46:56;99099.22;;;11.40;99.39
32083;BME280;18597;48.328;7.932;2022-11-20T13:49:34;99098.44;;;11.30;100.00
32083;BME280;18597;48.328;7.932;2022-11-20T14:00:23;99089.69;;;11.00;87.87
32083;BME280;18597;48.328;7.932;2022-11-20T14:03:21;99086.00;;;10.64;95.07
32083;BME280;18597;48.328;7.932;2022-11-20T14:05:55;99078.75;;;10.47;96.67
32083;BME280;18597;48.328;7.932;2022-11-20T14:08:46;99086.91;;;10.45;93.92
32083;BME280;18597;48.328;7.932;2022-11-20T14:11:20;99082.13;;;10.49;96.78
32083;BME280;18597;48.328;7.932;2022-11-20T14:14:03;99077.94;;;10.37;100.00
32083;BME280;18597;48.328;7.932;2022-11-20T14:16:34;99076.66;;;10.12;100.00
32083;BME280;18597;48.328;7.932;2022-11-20T14:22:10;99067.69;;;10.03;97.74
32083;BME280;18597;48.328;7.932;2022-11-20T14:24:41;99061.50;;;9.93;98.58
32083;BME280;18597;48.328;7.932;2022-11-20T14:27:21;99056.88;;;9.95;86.54
32083;BME280;18597;48.328;7.932;2022-11-20T14:29:49;99054.75;;;9.89;92.63
32083;BME280;18597;48.328;7.932;2022-11-20T14:32:18;99049.44;;;9.89;89.66
32083;BME280;18597;48.328;7.932;2022-11-20T14:34:47;99052.50;;;9.65;92.67